createdAt,value
2022-07-25T00:00:16.241Z,23.35
2022-07-25T00:02:19.404Z,23.33
2022-07-25T00:04:23.330Z,23.28
2022-07-25T00:06:26.346Z,23.26
2022-07-25T00:08:29.379Z,23.23
2022-07-25T00:10:32.442Z,23.21
2022-07-25T00:12:35.645Z,23.19
2022-07-25T00:14:39.067Z,23.15
2022-07-25T00:16:43.530Z,23.12
2022-07-25T00:18:47.129Z,23.08
2022-07-25T00:20:50.163Z,23.04
2022-07-25T00:22:53.163Z,23.03
2022-07-25T00:24:56.420Z,23.01
2022-07-25T00:26:59.529Z,22.99
2022-07-25T00:29:02.701Z,22.97
2022-07-25T00:31:05.967Z,22.92
2022-07-25T00:33:10.567Z,22.90
2022-07-25T00:35:13.652Z,22.87
2022-07-25T00:37:16.728Z,22.85
2022-07-25T00:39:20.023Z,22.81
2022-07-25T00:41:23.038Z,22.79
2022-07-25T00:43:26.037Z,22.77
2022-07-25T00:45:29.159Z,22.73
2022-07-25T00:47:32.234Z,22.70
2022-07-25T00:49:36.706Z,22.68
2022-07-25T00:51:39.692Z,22.65
2022-07-25T00:53:42.756Z,22.62
2022-07-25T00:55:46.176Z,22.58
2022-07-25T00:57:49.259Z,22.54
2022-07-25T00:59:52.414Z,22.48
2022-07-25T01:01:55.828Z,22.47
2022-07-25T01:03:58.963Z,22.45
2022-07-25T01:06:03.622Z,22.43
2022-07-25T01:08:07.382Z,22.40
2022-07-25T01:10:12.528Z,22.38
2022-07-25T01:12:15.567Z,22.37
2022-07-25T01:14:18.708Z,22.36
2022-07-25T01:16:21.980Z,22.34
2022-07-25T01:18:25.115Z,22.32
2022-07-25T01:20:30.671Z,22.29
2022-07-25T01:22:33.753Z,22.25
2022-07-25T01:24:36.951Z,22.23
2022-07-25T01:26:40.042Z,22.22
2022-07-25T01:28:43.075Z,22.18
2022-07-25T01:30:46.154Z,22.16
2022-07-25T01:32:49.541Z,22.14
2022-07-25T01:34:52.552Z,22.12
2022-07-25T01:36:56.958Z,22.10
2022-07-25T01:39:00.076Z,22.09
2022-07-25T01:41:03.181Z,22.07
2022-07-25T01:43:06.499Z,22.05
2022-07-25T01:45:10.406Z,22.03
2022-07-25T01:47:13.393Z,22.02
2022-07-25T01:49:16.490Z,22.00
2022-07-25T01:51:20.374Z,21.98
2022-07-25T01:53:24.994Z,21.96
2022-07-25T01:55:29.442Z,21.95
2022-07-25T01:57:33.936Z,21.92
2022-07-25T01:59:40.341Z,21.89
2022-07-25T02:01:44.048Z,21.86
2022-07-25T02:03:47.169Z,21.83
2022-07-25T02:05:50.193Z,21.80
2022-07-25T02:07:53.197Z,21.78
2022-07-25T02:09:57.812Z,21.77
2022-07-25T02:12:00.817Z,21.76
2022-07-25T02:14:04.498Z,21.72
2022-07-25T02:16:07.840Z,21.68
2022-07-25T02:18:11.010Z,21.64
2022-07-25T02:20:13.980Z,21.62
2022-07-25T02:22:17.084Z,21.59
2022-07-25T02:24:20.189Z,21.59
2022-07-25T02:26:24.624Z,21.57
2022-07-25T02:28:28.249Z,21.55
2022-07-25T02:30:31.385Z,21.52
2022-07-25T02:32:34.518Z,21.46
2022-07-25T02:34:37.493Z,21.47
2022-07-25T02:36:40.572Z,21.45
2022-07-25T02:38:43.751Z,21.41
2022-07-25T02:40:46.819Z,21.41
2022-07-25T02:42:51.350Z,21.39
2022-07-25T02:44:54.424Z,21.39
2022-07-25T02:46:57.451Z,21.36
2022-07-25T02:49:01.042Z,21.33
2022-07-25T02:51:04.466Z,21.31
2022-07-25T02:53:07.728Z,21.29
2022-07-25T02:55:11.716Z,21.27
2022-07-25T02:57:14.768Z,21.25
2022-07-25T02:59:19.151Z,21.23
2022-07-25T03:01:22.331Z,21.23
2022-07-25T03:03:25.367Z,21.21
2022-07-25T03:05:28.606Z,21.20
2022-07-25T03:07:32.765Z,21.19
2022-07-25T03:09:35.788Z,21.18
2022-07-25T03:11:38.938Z,21.16
2022-07-25T03:13:42.067Z,21.13
2022-07-25T03:15:46.537Z,21.12
2022-07-25T03:17:49.575Z,21.09
2022-07-25T03:19:52.836Z,21.08
2022-07-25T03:21:55.882Z,21.06
2022-07-25T03:23:58.967Z,21.05
2022-07-25T03:26:02.143Z,21.02
2022-07-25T03:28:05.432Z,21.01
2022-07-25T03:30:10.004Z,21.00
2022-07-25T03:32:14.629Z,20.99
2022-07-25T03:34:17.713Z,20.97
2022-07-25T03:36:20.693Z,20.95
2022-07-25T03:38:24.679Z,20.94
2022-07-25T03:40:28.101Z,20.94
2022-07-25T03:42:35.218Z,20.93
2022-07-25T03:44:39.028Z,20.91
2022-07-25T03:46:42.027Z,20.90
2022-07-25T03:48:46.639Z,20.88
2022-07-25T03:50:49.629Z,20.86
2022-07-25T03:52:52.745Z,20.85
2022-07-25T03:54:55.833Z,20.85
2022-07-25T03:56:58.891Z,20.86
2022-07-25T03:59:01.955Z,20.88
2022-07-25T04:01:05.030Z,20.87
2022-07-25T04:03:13.736Z,20.86
2022-07-25T04:05:18.184Z,20.88
2022-07-25T04:07:21.227Z,20.88
2022-07-25T04:09:24.492Z,20.87
2022-07-25T04:11:28.112Z,20.87
2022-07-25T04:13:31.186Z,20.85
2022-07-25T04:15:34.211Z,20.85
2022-07-25T04:17:39.673Z,20.86
2022-07-25T04:19:42.856Z,20.87
2022-07-25T04:21:48.388Z,20.87
2022-07-25T04:23:51.955Z,20.87
2022-07-25T04:25:54.956Z,20.90
2022-07-25T04:27:58.011Z,20.89
2022-07-25T04:30:01.239Z,20.91
2022-07-25T04:32:04.736Z,20.93
2022-07-25T04:34:08.417Z,20.96
2022-07-25T04:36:11.972Z,20.99
2022-07-25T04:38:16.428Z,21.02
2022-07-25T04:40:19.571Z,21.05
2022-07-25T04:42:22.643Z,21.08
2022-07-25T04:44:25.736Z,21.12
2022-07-25T04:46:28.815Z,21.16
2022-07-25T04:48:31.871Z,21.19
2022-07-25T04:50:34.978Z,21.23
2022-07-25T04:52:38.002Z,21.27
2022-07-25T04:54:42.468Z,21.31
2022-07-25T04:56:45.584Z,21.33
2022-07-25T04:58:49.310Z,21.36
2022-07-25T05:00:52.659Z,21.40
2022-07-25T05:02:55.770Z,21.43
2022-07-25T05:04:58.835Z,21.45
2022-07-25T05:07:06.066Z,21.49
2022-07-25T05:09:09.149Z,21.55
2022-07-25T05:11:13.548Z,21.59
2022-07-25T05:13:16.668Z,21.64
2022-07-25T05:15:20.005Z,21.66
2022-07-25T05:17:23.011Z,21.72
2022-07-25T05:19:26.190Z,21.78
2022-07-25T05:21:29.317Z,21.85
2022-07-25T05:23:32.534Z,21.89
2022-07-25T05:25:35.644Z,21.96
2022-07-25T05:27:40.438Z,21.98
2022-07-25T05:29:43.496Z,22.03
2022-07-25T05:31:47.030Z,22.08
2022-07-25T05:33:50.221Z,22.16
2022-07-25T05:35:53.549Z,22.25
2022-07-25T05:37:56.623Z,22.31
2022-07-25T05:39:59.664Z,22.34
2022-07-25T05:42:02.764Z,22.43
2022-07-25T05:44:07.697Z,22.58
2022-07-25T05:46:11.056Z,22.84
2022-07-25T05:48:14.245Z,23.12
2022-07-25T05:50:17.378Z,23.43
2022-07-25T05:52:20.477Z,23.70
2022-07-25T05:54:24.402Z,24.04
2022-07-25T05:56:42.218Z,24.44
2022-07-25T05:58:46.128Z,24.83
2022-07-25T06:00:51.027Z,25.16
2022-07-25T06:02:54.446Z,25.45
2022-07-25T06:04:57.521Z,25.77
2022-07-25T06:07:00.623Z,26.05
2022-07-25T06:09:03.653Z,26.29
2022-07-25T06:11:11.278Z,26.53
2022-07-25T06:13:14.457Z,26.81
2022-07-25T06:15:22.536Z,27.08
2022-07-25T06:17:32.724Z,27.44
2022-07-25T06:19:35.981Z,27.70
2022-07-25T06:21:38.997Z,27.91
2022-07-25T06:23:42.032Z,28.13
2022-07-25T06:25:50.004Z,28.39
2022-07-25T06:27:53.630Z,28.67
2022-07-25T06:29:56.699Z,28.90
2022-07-25T06:31:59.765Z,29.08
2022-07-25T06:34:04.435Z,29.27
2022-07-25T06:36:08.482Z,29.44
2022-07-25T06:38:11.574Z,29.67
2022-07-25T06:40:14.718Z,29.85
2022-07-25T06:42:17.788Z,30.06
2022-07-25T06:44:20.844Z,30.30
2022-07-25T06:46:23.993Z,30.51
2022-07-25T06:48:27.183Z,30.69
2022-07-25T06:50:31.788Z,30.90
2022-07-25T06:52:35.115Z,31.17
2022-07-25T06:54:38.128Z,31.46
2022-07-25T06:56:41.153Z,31.71
2022-07-25T06:58:46.757Z,31.98
2022-07-25T07:00:50.279Z,32.24
2022-07-25T07:02:56.261Z,32.43
2022-07-25T07:05:01.042Z,32.63
2022-07-25T07:07:05.709Z,32.78
2022-07-25T07:09:08.777Z,32.92
2022-07-25T07:11:13.359Z,33.08
2022-07-25T07:13:23.703Z,33.30
2022-07-25T07:15:27.595Z,33.51
2022-07-25T07:17:30.735Z,33.63
2022-07-25T07:19:33.916Z,33.77
2022-07-25T07:21:36.997Z,33.92
2022-07-25T07:23:41.449Z,34.07
2022-07-25T07:25:45.795Z,34.13
2022-07-25T07:27:49.435Z,34.19
2022-07-25T07:29:52.497Z,34.35
2022-07-25T07:31:55.666Z,34.54
2022-07-25T07:33:59.323Z,34.70
2022-07-25T07:36:02.658Z,34.81
2022-07-25T07:38:05.755Z,34.91
2022-07-25T07:40:17.215Z,35.03
2022-07-25T07:42:21.198Z,35.15
2022-07-25T07:44:24.376Z,35.30
2022-07-25T07:46:27.629Z,35.38
2022-07-25T07:48:31.578Z,35.49
2022-07-25T07:50:34.910Z,35.56
2022-07-25T07:52:38.649Z,35.73
2022-07-25T07:54:59.636Z,35.76
2022-07-25T07:57:04.141Z,35.88
2022-07-25T07:59:07.714Z,35.96
2022-07-25T08:01:11.153Z,35.86
2022-07-25T08:03:14.836Z,35.71
2022-07-25T08:05:22.588Z,35.70
2022-07-25T08:07:25.775Z,35.78
2022-07-25T08:09:28.902Z,35.88
2022-07-25T08:11:32.083Z,36.00
2022-07-25T08:13:38.078Z,35.93
2022-07-25T08:15:41.463Z,35.88
2022-07-25T08:17:45.095Z,35.94
2022-07-25T08:19:48.198Z,36.02
2022-07-25T08:21:51.244Z,36.06
2022-07-25T08:23:54.296Z,36.19
2022-07-25T08:25:57.698Z,36.15
2022-07-25T08:28:00.792Z,36.15
2022-07-25T08:30:06.415Z,36.11
2022-07-25T08:32:09.588Z,36.23
2022-07-25T08:34:13.754Z,36.30
2022-07-25T08:36:16.917Z,36.37
2022-07-25T08:38:20.426Z,36.44
2022-07-25T08:40:26.063Z,36.49
2022-07-25T08:42:29.149Z,36.57
2022-07-25T08:44:37.518Z,36.65
2022-07-25T08:46:43.667Z,36.69
2022-07-25T08:48:46.855Z,36.61
2022-07-25T08:50:51.161Z,36.63
2022-07-25T08:53:10.051Z,36.70
2022-07-25T08:55:20.171Z,36.78
2022-07-25T08:57:23.332Z,36.79
2022-07-25T08:59:26.384Z,36.77
2022-07-25T09:01:34.753Z,36.77
2022-07-25T09:03:40.245Z,36.74
2022-07-25T09:05:43.832Z,36.76
2022-07-25T09:07:46.975Z,36.77
2022-07-25T09:09:50.045Z,36.80
2022-07-25T09:11:53.040Z,36.75
2022-07-25T09:14:00.739Z,36.75
2022-07-25T09:16:05.606Z,36.60
2022-07-25T09:18:13.103Z,36.59
2022-07-25T09:20:22.131Z,36.61
2022-07-25T09:22:25.304Z,36.66
2022-07-25T09:24:29.142Z,36.75
2022-07-25T09:26:32.244Z,36.76
2022-07-25T09:28:41.344Z,36.81
2022-07-25T09:30:55.524Z,36.84
2022-07-25T09:33:02.567Z,36.83
2022-07-25T09:35:06.450Z,36.81
2022-07-25T09:37:12.961Z,36.90
2022-07-25T09:39:16.108Z,36.97
2022-07-25T09:41:19.963Z,36.87
2022-07-25T09:43:23.582Z,36.84
2022-07-25T09:45:31.316Z,36.92
2022-07-25T09:47:36.867Z,36.97
2022-07-25T09:49:42.016Z,36.86
2022-07-25T09:51:45.582Z,36.88
2022-07-25T09:53:50.099Z,36.86
2022-07-25T09:55:55.134Z,36.89
2022-07-25T09:58:01.464Z,36.94
2022-07-25T10:00:06.400Z,37.03
2022-07-25T10:02:23.265Z,37.09
2022-07-25T10:04:37.436Z,37.10
2022-07-25T10:06:42.254Z,37.18
2022-07-25T10:08:45.776Z,37.22
2022-07-25T10:10:50.344Z,37.18
2022-07-25T10:13:07.843Z,37.07
2022-07-25T10:15:14.840Z,37.04
2022-07-25T10:17:22.347Z,37.02
2022-07-25T10:19:58.276Z,37.00
2022-07-25T10:22:01.915Z,36.97
2022-07-25T10:24:07.525Z,37.07
2022-07-25T10:26:14.006Z,37.05
2022-07-25T10:28:20.136Z,37.05
2022-07-25T10:30:24.309Z,37.06
2022-07-25T10:32:27.687Z,37.05
2022-07-25T10:34:31.966Z,36.95
2022-07-25T10:36:45.509Z,36.96
2022-07-25T10:38:51.578Z,37.00
2022-07-25T10:40:54.813Z,37.00
2022-07-25T10:43:02.725Z,37.06
2022-07-25T10:45:09.516Z,37.08
2022-07-25T10:47:13.853Z,37.06
2022-07-25T10:49:29.087Z,37.10
2022-07-25T10:51:41.327Z,37.12
2022-07-25T10:53:46.364Z,37.14
2022-07-25T10:56:05.682Z,37.20
2022-07-25T10:58:18.261Z,37.22
2022-07-25T11:00:22.022Z,37.23
2022-07-25T11:02:25.351Z,37.25
2022-07-25T11:04:29.545Z,37.12
2022-07-25T11:06:35.222Z,36.83
2022-07-25T11:08:38.421Z,36.61
2022-07-25T11:10:41.576Z,36.53
2022-07-25T11:12:45.800Z,36.63
2022-07-25T11:14:50.388Z,36.74
2022-07-25T11:16:57.013Z,36.87
2022-07-25T11:19:02.193Z,36.93
2022-07-25T11:21:07.431Z,36.97
2022-07-25T11:23:10.514Z,37.02
2022-07-25T11:25:14.746Z,37.11
2022-07-25T11:27:24.425Z,37.14
2022-07-25T11:29:28.097Z,37.12
2022-07-25T11:31:36.043Z,37.12
2022-07-25T11:33:39.535Z,37.13
2022-07-25T11:35:42.840Z,37.17
2022-07-25T11:37:48.938Z,37.16
2022-07-25T11:39:52.994Z,37.18
2022-07-25T11:42:06.746Z,37.17
2022-07-25T11:44:09.824Z,37.01
2022-07-25T11:46:13.059Z,37.01
2022-07-25T11:48:19.676Z,37.03
2022-07-25T11:50:30.304Z,37.01
2022-07-25T11:52:35.804Z,37.05
2022-07-25T11:54:38.961Z,37.06
2022-07-25T11:56:43.892Z,37.07
2022-07-25T11:58:57.846Z,37.10
2022-07-25T12:01:00.984Z,37.07
2022-07-25T12:03:08.583Z,37.14
2022-07-25T12:05:15.458Z,37.16
2022-07-25T12:07:18.598Z,37.16
2022-07-25T12:09:23.128Z,37.18
2022-07-25T12:11:26.229Z,37.18
2022-07-25T12:13:30.489Z,37.15
2022-07-25T12:15:36.436Z,37.19
2022-07-25T12:17:39.665Z,37.18
2022-07-25T12:19:47.014Z,37.01
2022-07-25T12:21:51.636Z,36.73
2022-07-25T12:23:54.849Z,36.58
2022-07-25T12:25:58.034Z,36.64
2022-07-25T12:28:01.683Z,36.77
2022-07-25T12:30:05.663Z,36.74
2022-07-25T12:32:08.905Z,36.74
2022-07-25T12:34:12.016Z,36.84
2022-07-25T12:36:15.104Z,36.81
2022-07-25T12:38:19.736Z,36.83
2022-07-25T12:40:22.856Z,36.96
2022-07-25T12:42:27.134Z,37.12
2022-07-25T12:44:30.118Z,37.25
2022-07-25T12:46:33.352Z,37.33
2022-07-25T12:48:37.642Z,37.45
2022-07-25T12:50:40.742Z,37.49
2022-07-25T12:52:44.592Z,37.48
2022-07-25T12:54:49.796Z,37.47
2022-07-25T12:56:53.191Z,37.51
2022-07-25T12:58:56.303Z,37.51
2022-07-25T13:01:01.282Z,37.55
2022-07-25T13:03:06.660Z,37.51
2022-07-25T13:05:12.946Z,37.43
2022-07-25T13:07:16.652Z,37.26
2022-07-25T13:09:19.758Z,37.08
2022-07-25T13:11:24.276Z,36.98
2022-07-25T13:13:27.536Z,36.85
2022-07-25T13:15:30.787Z,36.86
2022-07-25T13:17:33.955Z,36.86
2022-07-25T13:19:37.115Z,36.81
2022-07-25T13:21:40.429Z,36.73
2022-07-25T13:23:43.841Z,36.66
2022-07-25T13:25:47.174Z,36.52
2022-07-25T13:27:51.639Z,36.41
2022-07-25T13:29:55.192Z,36.39
2022-07-25T13:31:58.267Z,36.36
2022-07-25T13:34:01.419Z,36.40
2022-07-25T13:36:05.045Z,36.42
2022-07-25T13:38:10.888Z,36.36
2022-07-25T13:40:14.352Z,36.31
2022-07-25T13:42:17.492Z,36.25
2022-07-25T13:44:22.550Z,36.17
2022-07-25T13:46:25.857Z,36.15
2022-07-25T13:48:31.462Z,35.99
2022-07-25T13:50:35.084Z,36.00
2022-07-25T13:52:38.784Z,36.01
2022-07-25T13:54:42.026Z,36.01
2022-07-25T13:56:45.107Z,35.99
2022-07-25T13:58:48.266Z,36.02
2022-07-25T14:00:53.089Z,36.05
2022-07-25T14:02:56.277Z,36.17
2022-07-25T14:05:03.783Z,36.28
2022-07-25T14:07:07.469Z,36.33
2022-07-25T14:09:10.903Z,36.35
2022-07-25T14:11:14.487Z,36.38
2022-07-25T14:13:17.564Z,36.44
2022-07-25T14:15:20.975Z,36.46
2022-07-25T14:17:30.032Z,36.40
2022-07-25T14:19:33.590Z,36.31
2022-07-25T14:21:36.974Z,36.22
2022-07-25T14:23:40.045Z,36.10
2022-07-25T14:25:43.427Z,35.95
2022-07-25T14:27:46.502Z,35.81
2022-07-25T14:29:49.601Z,35.69
2022-07-25T14:31:52.773Z,35.60
2022-07-25T14:33:58.069Z,35.53
2022-07-25T14:36:01.136Z,35.49
2022-07-25T14:38:06.089Z,35.48
2022-07-25T14:40:11.992Z,35.48
2022-07-25T14:42:15.181Z,35.54
2022-07-25T14:44:19.356Z,35.37
2022-07-25T14:46:22.496Z,35.36
2022-07-25T14:48:25.714Z,35.29
2022-07-25T14:50:30.190Z,35.22
2022-07-25T14:52:33.361Z,35.06
2022-07-25T14:54:36.477Z,35.01
2022-07-25T14:56:40.103Z,35.02
2022-07-25T14:58:43.235Z,34.99
2022-07-25T15:00:47.533Z,34.98
2022-07-25T15:02:50.856Z,35.01
2022-07-25T15:04:54.073Z,35.00
2022-07-25T15:06:58.675Z,35.03
2022-07-25T15:09:01.764Z,35.02
2022-07-25T15:11:04.845Z,35.01
2022-07-25T15:13:29.948Z,34.99
2022-07-25T15:15:31.051Z,35.01
2022-07-25T15:17:34.355Z,35.06
2022-07-25T15:19:37.461Z,35.13
2022-07-25T15:21:40.604Z,35.15
2022-07-25T15:23:45.079Z,35.16
2022-07-25T15:26:04.323Z,35.13
2022-07-25T15:28:08.488Z,35.12
2022-07-25T15:30:12.326Z,35.12
2022-07-25T15:32:15.385Z,35.12
2022-07-25T15:34:18.724Z,35.16
2022-07-25T15:36:24.556Z,35.23
2022-07-25T15:38:32.049Z,35.30
2022-07-25T15:40:36.779Z,35.27
2022-07-25T15:42:40.377Z,35.23
2022-07-25T15:44:43.563Z,35.22
2022-07-25T15:46:47.175Z,35.21
2022-07-25T15:48:50.409Z,35.17
2022-07-25T15:50:54.722Z,35.05
2022-07-25T15:52:57.824Z,34.96
2022-07-25T15:55:00.955Z,34.89
2022-07-25T15:57:07.092Z,34.80
2022-07-25T15:59:10.701Z,34.68
2022-07-25T16:01:13.989Z,34.51
2022-07-25T16:03:17.207Z,34.34
2022-07-25T16:05:20.368Z,34.18
2022-07-25T16:07:23.585Z,34.04
2022-07-25T16:09:26.693Z,33.86
2022-07-25T16:11:29.888Z,33.76
2022-07-25T16:13:34.416Z,33.64
2022-07-25T16:15:37.503Z,33.52
2022-07-25T16:17:40.823Z,33.40
2022-07-25T16:19:43.941Z,33.36
2022-07-25T16:21:47.969Z,33.39
2022-07-25T16:23:51.074Z,33.47
2022-07-25T16:25:54.290Z,33.58
2022-07-25T16:27:58.442Z,33.64
2022-07-25T16:30:03.209Z,33.61
2022-07-25T16:32:07.470Z,33.59
2022-07-25T16:34:11.183Z,33.47
2022-07-25T16:36:14.343Z,33.33
2022-07-25T16:38:18.068Z,33.34
2022-07-25T16:40:22.330Z,33.36
2022-07-25T16:42:27.996Z,33.41
2022-07-25T16:44:31.220Z,33.44
2022-07-25T16:46:35.944Z,33.47
2022-07-25T16:48:39.277Z,33.50
2022-07-25T16:50:42.350Z,33.47
2022-07-25T16:52:45.850Z,33.43
2022-07-25T16:54:48.967Z,33.36
2022-07-25T16:56:55.575Z,33.27
2022-07-25T16:59:00.856Z,33.17
2022-07-25T17:01:03.962Z,33.10
2022-07-25T17:03:08.460Z,33.06
2022-07-25T17:05:11.808Z,33.04
2022-07-25T17:07:15.027Z,33.06
2022-07-25T17:09:18.275Z,33.09
2022-07-25T17:11:21.569Z,33.17
2022-07-25T17:13:24.840Z,33.19
2022-07-25T17:15:28.062Z,33.22
2022-07-25T17:17:31.738Z,33.26
2022-07-25T17:19:39.664Z,33.27
2022-07-25T17:21:42.898Z,33.25
2022-07-25T17:23:47.102Z,33.26
2022-07-25T17:25:50.845Z,33.27
2022-07-25T17:27:54.061Z,33.24
2022-07-25T17:29:57.223Z,33.24
2022-07-25T17:32:00.398Z,33.22
2022-07-25T17:34:03.627Z,33.17
2022-07-25T17:36:08.756Z,33.13
2022-07-25T17:38:12.734Z,33.07
2022-07-25T17:40:17.914Z,33.03
2022-07-25T17:42:22.271Z,32.96
2022-07-25T17:44:25.771Z,32.93
2022-07-25T17:46:29.150Z,32.92
2022-07-25T17:48:32.354Z,32.88
2022-07-25T17:50:35.521Z,32.84
2022-07-25T17:52:40.049Z,32.80
2022-07-25T17:54:43.375Z,32.73
2022-07-25T17:56:46.818Z,32.69
2022-07-25T17:58:49.886Z,32.65
2022-07-25T18:00:56.849Z,32.62
2022-07-25T18:03:02.763Z,32.56
2022-07-25T18:05:06.948Z,32.51
2022-07-25T18:07:10.131Z,32.45
2022-07-25T18:09:14.577Z,32.40
2022-07-25T18:11:17.909Z,32.36
2022-07-25T18:13:21.986Z,32.32
2022-07-25T18:15:25.435Z,32.25
2022-07-25T18:17:28.532Z,32.21
2022-07-25T18:19:31.695Z,32.13
2022-07-25T18:21:34.932Z,32.07
2022-07-25T18:23:38.028Z,32.00
2022-07-25T18:25:42.523Z,31.93
2022-07-25T18:27:47.040Z,31.84
2022-07-25T18:29:50.250Z,31.75
2022-07-25T18:31:53.484Z,31.71
2022-07-25T18:33:57.079Z,31.67
2022-07-25T18:36:04.088Z,31.59
2022-07-25T18:38:11.538Z,31.51
2022-07-25T18:40:14.889Z,31.41
2022-07-25T18:42:19.548Z,31.35
2022-07-25T18:44:22.730Z,31.25
2022-07-25T18:46:26.024Z,31.22
2022-07-25T18:48:29.190Z,31.11
2022-07-25T18:50:32.445Z,31.01
2022-07-25T18:52:36.287Z,30.92
2022-07-25T18:54:39.479Z,30.85
2022-07-25T18:56:44.002Z,30.74
2022-07-25T18:58:48.484Z,30.64
2022-07-25T19:00:51.625Z,30.57
2022-07-25T19:02:54.910Z,30.53
2022-07-25T19:04:58.109Z,30.47
2022-07-25T19:07:01.412Z,30.42
2022-07-25T19:09:04.760Z,30.36
2022-07-25T19:11:08.540Z,30.30
2022-07-25T19:13:26.835Z,30.26
2022-07-25T19:15:36.599Z,30.20
2022-07-25T19:17:39.905Z,30.14
2022-07-25T19:19:43.907Z,30.09
2022-07-25T19:21:47.101Z,30.03
2022-07-25T19:23:51.362Z,29.95
2022-07-25T19:25:55.225Z,29.93
2022-07-25T19:27:58.337Z,29.82
2022-07-25T19:30:01.602Z,29.78
2022-07-25T19:32:07.176Z,29.69
2022-07-25T19:34:11.051Z,29.65
2022-07-25T19:36:14.788Z,29.58
2022-07-25T19:38:17.913Z,29.51
2022-07-25T19:40:21.066Z,29.48
2022-07-25T19:42:24.189Z,29.42
2022-07-25T19:44:27.276Z,29.38
2022-07-25T19:46:33.530Z,29.34
2022-07-25T19:48:38.242Z,29.30
2022-07-25T19:50:41.807Z,29.24
2022-07-25T19:52:45.211Z,29.15
2022-07-25T19:54:48.394Z,29.10
2022-07-25T19:56:51.559Z,29.05
2022-07-25T19:58:54.777Z,29.02
2022-07-25T20:00:57.958Z,28.93
2022-07-25T20:03:01.478Z,28.90
2022-07-25T20:05:06.402Z,28.87
2022-07-25T20:07:09.479Z,28.84
2022-07-25T20:09:12.606Z,28.81
2022-07-25T20:11:16.799Z,28.75
2022-07-25T20:13:19.861Z,28.74
2022-07-25T20:15:23.104Z,28.72
2022-07-25T20:17:26.714Z,28.67
2022-07-25T20:19:29.960Z,28.61
2022-07-25T20:21:34.550Z,28.59
2022-07-25T20:23:38.164Z,28.54
2022-07-25T20:25:41.243Z,28.52
2022-07-25T20:27:44.358Z,28.49
2022-07-25T20:29:47.431Z,28.46
2022-07-25T20:31:52.636Z,28.38
2022-07-25T20:33:56.076Z,28.37
2022-07-25T20:35:59.842Z,28.34
2022-07-25T20:38:09.490Z,28.30
2022-07-25T20:40:13.671Z,28.26
2022-07-25T20:42:16.866Z,28.22
2022-07-25T20:44:20.020Z,28.20
2022-07-25T20:46:23.497Z,28.19
2022-07-25T20:48:27.123Z,28.14
2022-07-25T20:50:30.274Z,28.11
2022-07-25T20:52:33.678Z,28.08
2022-07-25T20:54:39.185Z,28.05
2022-07-25T20:56:42.258Z,28.00
2022-07-25T20:58:45.329Z,27.96
2022-07-25T21:00:48.366Z,27.91
2022-07-25T21:02:51.798Z,27.86
2022-07-25T21:04:54.993Z,27.81
2022-07-25T21:06:58.067Z,27.76
2022-07-25T21:09:01.237Z,27.72
2022-07-25T21:11:06.218Z,27.68
2022-07-25T21:13:09.266Z,27.62
2022-07-25T21:15:12.931Z,27.58
2022-07-25T21:17:15.997Z,27.53
2022-07-25T21:19:19.033Z,27.48
2022-07-25T21:21:22.133Z,27.42
2022-07-25T21:23:26.373Z,27.41
2022-07-25T21:25:29.418Z,27.37
2022-07-25T21:27:33.859Z,27.32
2022-07-25T21:29:37.098Z,27.26
2022-07-25T21:31:40.241Z,27.22
2022-07-25T21:33:43.310Z,27.19
2022-07-25T21:35:50.458Z,27.17
2022-07-25T21:37:56.154Z,27.13
2022-07-25T21:39:59.181Z,27.08
2022-07-25T21:42:02.253Z,27.04
2022-07-25T21:44:08.654Z,26.99
2022-07-25T21:46:11.853Z,26.96
2022-07-25T21:48:15.109Z,26.91
2022-07-25T21:50:35.716Z,26.91
2022-07-25T21:52:45.271Z,26.90
2022-07-25T21:54:48.580Z,26.89
2022-07-25T21:56:52.559Z,26.84
2022-07-25T21:58:55.768Z,26.81
2022-07-25T22:01:00.407Z,26.73
2022-07-25T22:03:03.475Z,26.70
2022-07-25T22:05:07.323Z,26.67
2022-07-25T22:07:10.408Z,26.66
2022-07-25T22:09:13.675Z,26.63
2022-07-25T22:11:39.093Z,26.60
2022-07-25T22:13:43.032Z,26.58
2022-07-25T22:15:46.248Z,26.53
2022-07-25T22:17:50.653Z,26.49
2022-07-25T22:19:53.710Z,26.47
2022-07-25T22:21:56.808Z,26.44
2022-07-25T22:23:59.846Z,26.41
2022-07-25T22:26:03.131Z,26.39
2022-07-25T22:28:06.584Z,26.37
2022-07-25T22:30:18.705Z,26.34
2022-07-25T22:32:22.438Z,26.29
2022-07-25T22:34:27.008Z,26.27
2022-07-25T22:36:30.006Z,26.22
2022-07-25T22:38:33.088Z,26.18
2022-07-25T22:40:36.146Z,26.13
2022-07-25T22:42:39.248Z,26.07
2022-07-25T22:44:42.332Z,26.01
2022-07-25T22:46:46.127Z,26.00
2022-07-25T22:48:49.224Z,26.00
2022-07-25T22:50:53.737Z,25.98
2022-07-25T22:52:56.747Z,25.95
2022-07-25T22:54:59.746Z,25.91
2022-07-25T22:57:02.964Z,25.81
2022-07-25T22:59:06.250Z,25.78
2022-07-25T23:01:10.150Z,25.71
2022-07-25T23:03:13.248Z,25.70
2022-07-25T23:05:16.300Z,25.70
2022-07-25T23:07:20.778Z,25.71
2022-07-25T23:09:24.349Z,25.71
2022-07-25T23:11:39.377Z,25.70
2022-07-25T23:13:42.366Z,25.68
2022-07-25T23:15:51.121Z,25.66
2022-07-25T23:17:54.380Z,25.66
2022-07-25T23:19:57.589Z,25.64
2022-07-25T23:22:00.641Z,25.62
2022-07-25T23:24:05.597Z,25.62
2022-07-25T23:26:08.669Z,25.56
2022-07-25T23:28:11.678Z,25.51
2022-07-25T23:30:16.513Z,25.44
2022-07-25T23:32:19.935Z,25.39
2022-07-25T23:34:23.021Z,25.33
2022-07-25T23:36:26.085Z,25.33
2022-07-25T23:38:29.158Z,25.32
2022-07-25T23:40:33.498Z,25.30
2022-07-25T23:42:36.515Z,25.30
2022-07-25T23:44:42.049Z,25.26
2022-07-25T23:46:47.583Z,25.20
2022-07-25T23:48:50.604Z,25.13
2022-07-25T23:50:53.684Z,25.06
2022-07-25T23:52:56.725Z,24.94
2022-07-25T23:54:59.722Z,24.83
2022-07-25T23:57:04.292Z,24.79
2022-07-25T23:59:07.643Z,24.71
